Time;durP1;ratioP1;P1;durP2;ratioP2;P2;SDS_P1;SDS_P2;PMS_P1;PMS_P2;Temp;Humidity;BMP_temperature;BMP_pressure;BME280_temperature;BME280_humidity;BME280_pressure;Samples;Min_cycle;Max_cycle;Signal;HPM_P1;HPM_P2
2023/08/21 00:01:01;;;;;;;4.18;1.60;;;;;;;;;;4893905;29;20028;-65
2023/08/21 00:03:26;;;;;;;4.25;1.80;;;;;;;;;;4891372;29;20132;-65
2023/08/21 00:05:52;;;;;;;5.10;1.63;;;;;;;;;;4894602;29;20079;-65
2023/08/21 00:08:17;;;;;;;3.80;1.60;;;;;;;;;;4896134;29;20060;-65
2023/08/21 00:10:43;;;;;;;6.85;1.67;;;;;;;;;;4892656;29;20032;-64
2023/08/21 00:13:08;;;;;;;5.10;1.70;;;;;;;;;;4878108;29;20071;-67
2023/08/21 00:15:34;;;;;;;3.88;1.60;;;;;;;;;;4896021;29;20143;-65
2023/08/21 00:18:00;;;;;;;4.03;1.60;;;;;;;;;;4895701;29;20048;-65
2023/08/21 00:20:26;;;;;;;5.75;1.70;;;;;;;;;;4894673;29;20032;-65
2023/08/21 00:22:51;;;;;;;8.35;1.80;;;;;;;;;;4895161;29;20379;-65
2023/08/21 00:25:17;;;;;;;3.80;1.63;;;;;;;;;;4895762;29;20391;-65
2023/08/21 00:27:42;;;;;;;4.68;1.70;;;;;;;;;;4895487;29;20036;-65
2023/08/21 00:30:08;;;;;;;4.18;1.90;;;;;;;;;;4893892;29;20040;-65
2023/08/21 00:32:34;;;;;;;4.80;1.80;;;;;;;;;;4894731;29;20527;-65
2023/08/21 00:34:59;;;;;;;4.32;1.70;;;;;;;;;;4877022;29;20037;-66
2023/08/21 00:37:24;;;;;;;7.05;2.00;;;;;;;;;;4894943;29;20033;-65
2023/08/21 00:39:50;;;;;;;3.33;1.73;;;;;;;;;;4895941;29;20466;-66
2023/08/21 00:42:15;;;;;;;5.10;1.50;;;;;;;;;;4896223;29;20028;-65
2023/08/21 00:44:41;;;;;;;6.45;1.40;;;;;;;;;;4897143;29;20120;-65
2023/08/21 00:47:06;;;;;;;5.78;1.75;;;;;;;;;;4895068;29;20046;-65
2023/08/21 00:49:32;;;;;;;3.83;1.63;;;;;;;;;;4877439;29;20040;-65
2023/08/21 00:51:58;;;;;;;4.22;1.50;;;;;;;;;;4896333;29;20092;-67
2023/08/21 00:54:24;;;;;;;3.70;1.73;;;;;;;;;;4899163;29;20032;-65
2023/08/21 00:56:52;;;;;;;4.30;1.60;;;;;;;;;;4900102;29;20066;-65
2023/08/21 00:59:18;;;;;;;4.97;1.75;;;;;;;;;;4904319;29;20124;-65
2023/08/21 01:01:44;;;;;;;5.55;1.88;;;;;;;;;;4895587;29;20039;-65
2023/08/21 01:04:09;;;;;;;6.18;1.70;;;;;;;;;;4898538;29;20115;-65
2023/08/21 01:06:35;;;;;;;3.15;1.70;;;;;;;;;;4912964;29;20406;-66
2023/08/21 01:09:07;;;;;;;4.55;1.70;;;;;;;;;;4900427;29;20056;-65
2023/08/21 01:11:47;;;;;;;5.43;1.60;;;;;;;;;;4906539;29;20386;-65
2023/08/21 01:14:30;;;;;;;4.25;1.52;;;;;;;;;;4913512;29;20149;-65
2023/08/21 01:16:59;;;;;;;6.05;1.80;;;;;;;;;;4911692;29;20092;-68
2023/08/21 01:19:31;;;;;;;4.53;1.70;;;;;;;;;;4894279;29;20055;-66
2023/08/21 01:21:58;;;;;;;7.07;1.83;;;;;;;;;;4886852;29;20039;-67
2023/08/21 01:24:24;;;;;;;5.15;1.77;;;;;;;;;;4915407;29;20039;-65
2023/08/21 01:26:49;;;;;;;5.10;1.80;;;;;;;;;;4901282;29;20083;-65
2023/08/21 01:29:14;;;;;;;5.22;1.90;;;;;;;;;;4905954;29;20186;-65
2023/08/21 01:31:44;;;;;;;4.03;1.67;;;;;;;;;;4902459;29;20079;-65
2023/08/21 01:34:12;;;;;;;4.65;1.92;;;;;;;;;;4891339;29;20028;-65
2023/08/21 01:36:38;;;;;;;5.15;1.88;;;;;;;;;;4886956;29;20115;-64
2023/08/21 01:39:03;;;;;;;3.17;1.65;;;;;;;;;;4911908;29;20550;-66
2023/08/21 01:41:29;;;;;;;5.95;1.58;;;;;;;;;;4897301;29;20033;-66
2023/08/21 01:43:54;;;;;;;3.97;1.60;;;;;;;;;;4899031;29;20084;-68
2023/08/21 01:46:20;;;;;;;5.78;1.85;;;;;;;;;;4902252;29;20398;-66
2023/08/21 01:48:45;;;;;;;5.18;1.90;;;;;;;;;;4909505;29;20054;-65
2023/08/21 01:51:10;;;;;;;4.32;1.63;;;;;;;;;;4894290;29;20032;-65
2023/08/21 01:53:36;;;;;;;5.22;1.58;;;;;;;;;;4899102;29;20040;-65
2023/08/21 01:56:01;;;;;;;5.45;1.73;;;;;;;;;;4896161;29;20132;-66
2023/08/21 01:58:26;;;;;;;4.68;1.80;;;;;;;;;;4886062;29;20056;-65
2023/08/21 02:00:52;;;;;;;5.95;1.83;;;;;;;;;;4893523;29;20077;-65
2023/08/21 02:03:17;;;;;;;5.38;1.63;;;;;;;;;;4876957;29;20045;-65
2023/08/21 02:05:43;;;;;;;4.18;1.70;;;;;;;;;;4895635;29;20043;-65
2023/08/21 02:08:13;;;;;;;4.13;1.70;;;;;;;;;;4894502;29;20450;-66
2023/08/21 02:10:49;;;;;;;6.05;1.80;;;;;;;;;;4892690;29;20081;-65
2023/08/21 02:13:15;;;;;;;4.13;1.60;;;;;;;;;;4895680;29;20045;-66
2023/08/21 02:15:40;;;;;;;5.07;1.65;;;;;;;;;;4878840;29;20044;-66
2023/08/21 02:18:05;;;;;;;4.38;1.50;;;;;;;;;;4895431;29;20496;-66
2023/08/21 02:20:31;;;;;;;7.18;1.70;;;;;;;;;;4892794;29;20040;-66
2023/08/21 02:22:56;;;;;;;3.60;1.65;;;;;;;;;;4895099;29;20032;-67
2023/08/21 02:25:22;;;;;;;4.95;1.83;;;;;;;;;;4895216;29;20032;-65
2023/08/21 02:27:47;;;;;;;5.03;1.77;;;;;;;;;;4894341;29;20122;-65
2023/08/21 02:30:13;;;;;;;4.57;1.60;;;;;;;;;;4891531;29;20035;-65
2023/08/21 02:32:40;;;;;;;3.75;1.45;;;;;;;;;;4895115;29;20036;-65
2023/08/21 02:35:06;;;;;;;4.05;1.85;;;;;;;;;;4878055;29;20044;-65
2023/08/21 02:37:31;;;;;;;3.28;1.52;;;;;;;;;;4890048;29;20033;-65
2023/08/21 02:39:57;;;;;;;4.47;1.55;;;;;;;;;;4887457;29;20040;-67
2023/08/21 02:42:22;;;;;;;5.40;1.67;;;;;;;;;;4895853;29;20060;-65
2023/08/21 02:44:47;;;;;;;5.63;1.80;;;;;;;;;;4898378;29;20039;-65
2023/08/21 02:47:13;;;;;;;5.10;1.85;;;;;;;;;;4887727;29;20167;-65
2023/08/21 02:49:38;;;;;;;5.97;1.90;;;;;;;;;;4895652;29;20111;-65
2023/08/21 02:52:03;;;;;;;5.93;1.92;;;;;;;;;;4897096;29;20036;-66
2023/08/21 02:54:29;;;;;;;5.85;1.90;;;;;;;;;;4898198;29;20036;-64
2023/08/21 02:56:54;;;;;;;5.28;1.70;;;;;;;;;;4882018;29;20474;-66
2023/08/21 02:59:20;;;;;;;3.53;1.70;;;;;;;;;;4894874;29;20074;-65
2023/08/21 03:01:45;;;;;;;5.88;1.85;;;;;;;;;;4896348;29;20036;-66
2023/08/21 03:04:11;;;;;;;3.88;1.73;;;;;;;;;;4895710;29;20035;-67
2023/08/21 03:06:36;;;;;;;6.70;2.03;;;;;;;;;;4884956;29;20049;-67
2023/08/21 03:09:01;;;;;;;3.60;1.77;;;;;;;;;;4895643;29;20386;-69
2023/08/21 03:11:27;;;;;;;4.70;1.85;;;;;;;;;;4897059;29;20115;-66
2023/08/21 03:13:52;;;;;;;4.82;2.15;;;;;;;;;;4898439;29;20029;-66
2023/08/21 03:16:17;;;;;;;5.40;1.73;;;;;;;;;;4892533;29;20485;-66
2023/08/21 03:18:57;;;;;;;4.88;1.92;;;;;;;;;;4897882;29;20036;-66
2023/08/21 03:21:24;;;;;;;5.00;1.90;;;;;;;;;;4897009;29;20035;-66
2023/08/21 03:23:56;;;;;;;3.00;1.70;;;;;;;;;;4897597;29;20628;-66
2023/08/21 03:26:22;;;;;;;5.57;2.05;;;;;;;;;;4895208;29;20850;-65
2023/08/21 03:28:47;;;;;;;4.65;1.88;;;;;;;;;;4895971;29;20129;-65
2023/08/21 03:31:12;;;;;;;3.17;1.63;;;;;;;;;;4892514;29;20029;-66
2023/08/21 03:33:38;;;;;;;4.30;1.85;;;;;;;;;;4897882;29;20032;-65
2023/08/21 03:36:03;;;;;;;7.07;2.13;;;;;;;;;;4893953;29;20066;-67
2023/08/21 03:38:29;;;;;;;5.55;1.77;;;;;;;;;;4880198;29;20039;-65
2023/08/21 03:40:54;;;;;;;8.25;1.92;;;;;;;;;;4897451;29;20091;-66
2023/08/21 03:43:19;;;;;;;5.10;1.50;;;;;;;;;;4897393;29;20570;-66
2023/08/21 03:45:45;;;;;;;5.53;1.98;;;;;;;;;;4877897;29;20042;-67
2023/08/21 03:48:10;;;;;;;4.63;1.70;;;;;;;;;;4896229;29;20100;-65
2023/08/21 03:50:36;;;;;;;3.33;1.67;;;;;;;;;;4896125;29;20043;-65
2023/08/21 03:53:01;;;;;;;3.35;1.63;;;;;;;;;;4895718;29;20100;-67
2023/08/21 03:55:27;;;;;;;5.85;1.70;;;;;;;;;;4896279;29;20107;-66
2023/08/21 03:57:52;;;;;;;4.65;1.80;;;;;;;;;;4897785;29;20427;-65
2023/08/21 04:00:18;;;;;;;5.13;1.80;;;;;;;;;;4896035;29;20119;-65
2023/08/21 04:02:43;;;;;;;5.25;1.52;;;;;;;;;;4895855;29;20032;-64
2023/08/21 04:05:10;;;;;;;4.18;1.80;;;;;;;;;;4894445;29;20028;-64
2023/08/21 04:07:35;;;;;;;5.38;1.58;;;;;;;;;;4897598;29;20093;-66
2023/08/21 04:10:01;;;;;;;5.63;1.80;;;;;;;;;;4893724;29;20363;-68
2023/08/21 04:12:26;;;;;;;4.70;1.60;;;;;;;;;;4895396;29;20047;-66
2023/08/21 04:14:52;;;;;;;7.82;1.83;;;;;;;;;;4878989;29;20067;-66
2023/08/21 04:17:23;;;;;;;6.10;1.70;;;;;;;;;;4895799;29;20481;-66
2023/08/21 04:19:52;;;;;;;4.90;1.65;;;;;;;;;;4896092;29;20069;-66
2023/08/21 04:22:17;;;;;;;7.57;1.90;;;;;;;;;;4894778;29;20035;-66
2023/08/21 04:24:43;;;;;;;8.20;2.17;;;;;;;;;;4895417;29;20029;-65
2023/08/21 04:27:11;;;;;;;8.90;2.47;;;;;;;;;;4894905;29;20055;-65
2023/08/21 04:29:38;;;;;;;4.18;1.85;;;;;;;;;;4895654;29;20478;-67
2023/08/21 04:32:04;;;;;;;5.60;1.83;;;;;;;;;;4895093;29;20396;-67
2023/08/21 04:34:29;;;;;;;5.82;1.92;;;;;;;;;;4892644;29;20028;-65
2023/08/21 04:36:54;;;;;;;4.53;1.80;;;;;;;;;;4879186;29;20040;-65
2023/08/21 04:39:20;;;;;;;4.78;1.77;;;;;;;;;;4893318;29;20454;-65
2023/08/21 04:41:45;;;;;;;5.70;1.90;;;;;;;;;;4879715;29;20036;-64
2023/08/21 04:44:10;;;;;;;5.40;2.17;;;;;;;;;;4890971;29;20037;-66
2023/08/21 04:46:36;;;;;;;33.13;7.15;;;;;;;;;;4896051;29;20381;-66
2023/08/21 04:49:01;;;;;;;5.38;2.42;;;;;;;;;;4892720;29;20029;-68
2023/08/21 04:51:27;;;;;;;5.10;2.00;;;;;;;;;;4895007;29;20379;-65
2023/08/21 04:53:52;;;;;;;7.40;2.50;;;;;;;;;;4896312;29;20123;-65
2023/08/21 04:56:18;;;;;;;6.13;2.30;;;;;;;;;;4894273;29;20182;-65
2023/08/21 04:58:43;;;;;;;6.82;2.88;;;;;;;;;;4900783;29;20152;-65
2023/08/21 05:01:08;;;;;;;5.95;2.35;;;;;;;;;;4912085;29;20461;-65
2023/08/21 05:03:34;;;;;;;5.88;2.50;;;;;;;;;;4909702;29;20064;-65
2023/08/21 05:05:59;;;;;;;6.63;2.30;;;;;;;;;;4907005;29;20536;-65
2023/08/21 05:08:26;;;;;;;7.00;2.30;;;;;;;;;;4907930;29;20029;-66
2023/08/21 05:10:56;;;;;;;8.27;2.50;;;;;;;;;;4897175;29;20036;-65
2023/08/21 05:13:21;;;;;;;6.50;2.77;;;;;;;;;;4910146;29;20107;-65
2023/08/21 05:15:52;;;;;;;7.00;2.63;;;;;;;;;;4914237;29;20118;-65
2023/08/21 05:18:17;;;;;;;6.25;2.75;;;;;;;;;;4912885;29;20039;-65
2023/08/21 05:20:43;;;;;;;9.57;2.75;;;;;;;;;;4884622;29;20040;-65
2023/08/21 05:23:08;;;;;;;8.60;3.15;;;;;;;;;;4895784;29;20097;-66
2023/08/21 05:25:33;;;;;;;8.55;3.03;;;;;;;;;;4891874;29;20041;-65
2023/08/21 05:27:59;;;;;;;6.35;2.50;;;;;;;;;;4877564;29;20032;-65
2023/08/21 05:30:25;;;;;;;6.90;2.78;;;;;;;;;;4884359;29;20128;-65
2023/08/21 05:32:50;;;;;;;6.22;2.67;;;;;;;;;;4875996;29;20128;-65
2023/08/21 05:35:15;;;;;;;5.93;2.58;;;;;;;;;;4876788;29;20069;-66
2023/08/21 05:37:41;;;;;;;7.63;2.80;;;;;;;;;;4877801;29;20459;-68
2023/08/21 05:40:07;;;;;;;6.55;2.50;;;;;;;;;;4886697;29;20040;-68
2023/08/21 05:42:33;;;;;;;4.97;2.30;;;;;;;;;;4895441;29;20078;-66
2023/08/21 05:44:58;;;;;;;6.75;2.97;;;;;;;;;;4896262;29;20123;-65
2023/08/21 05:47:24;;;;;;;7.63;2.90;;;;;;;;;;4894591;29;20535;-65
2023/08/21 05:49:50;;;;;;;6.32;2.80;;;;;;;;;;4895877;29;20036;-65
2023/08/21 05:52:15;;;;;;;6.10;2.67;;;;;;;;;;4894425;29;20072;-65
2023/08/21 05:54:41;;;;;;;5.97;2.65;;;;;;;;;;4878611;29;20036;-65
2023/08/21 05:57:06;;;;;;;6.97;3.10;;;;;;;;;;4895866;29;20501;-67
2023/08/21 05:59:32;;;;;;;12.18;2.85;;;;;;;;;;4907066;29;20127;-65
2023/08/21 06:01:58;;;;;;;5.88;2.90;;;;;;;;;;4891338;29;20037;-66
2023/08/21 06:04:24;;;;;;;8.27;2.70;;;;;;;;;;4878199;29;20048;-66
2023/08/21 06:06:50;;;;;;;6.28;2.90;;;;;;;;;;4898803;29;20039;-66
2023/08/21 06:09:17;;;;;;;8.80;3.08;;;;;;;;;;4896067;29;20037;-65
2023/08/21 06:11:43;;;;;;;10.35;3.50;;;;;;;;;;4878869;29;20032;-65
2023/08/21 06:14:08;;;;;;;8.68;3.13;;;;;;;;;;4897386;29;20039;-66
2023/08/21 06:16:33;;;;;;;7.35;3.20;;;;;;;;;;4898180;29;21920;-64
2023/08/21 06:18:59;;;;;;;6.85;2.80;;;;;;;;;;4898560;29;20025;-64
2023/08/21 06:21:24;;;;;;;8.13;2.70;;;;;;;;;;4897656;29;20041;-64
2023/08/21 06:23:49;;;;;;;8.43;2.83;;;;;;;;;;4898407;29;20036;-66
2023/08/21 06:26:15;;;;;;;8.25;2.90;;;;;;;;;;4881550;29;20025;-66
2023/08/21 06:28:40;;;;;;;8.40;2.80;;;;;;;;;;4899432;29;20123;-66
2023/08/21 06:31:08;;;;;;;6.78;2.67;;;;;;;;;;4898668;29;20033;-65
2023/08/21 06:33:34;;;;;;;6.28;2.65;;;;;;;;;;4898506;29;20496;-66
2023/08/21 06:35:59;;;;;;;8.65;2.80;;;;;;;;;;4896807;29;20040;-66
2023/08/21 06:38:25;;;;;;;5.70;2.40;;;;;;;;;;4898377;29;20466;-66
2023/08/21 06:40:50;;;;;;;8.23;2.78;;;;;;;;;;4898842;29;20032;-66
2023/08/21 06:43:16;;;;;;;8.05;2.80;;;;;;;;;;4898566;29;20033;-66
2023/08/21 06:45:42;;;;;;;8.10;2.72;;;;;;;;;;4898003;29;20499;-65
2023/08/21 06:48:07;;;;;;;8.07;2.67;;;;;;;;;;4898339;29;20029;-66
2023/08/21 06:50:33;;;;;;;6.40;2.92;;;;;;;;;;4897381;29;20045;-64
2023/08/21 06:52:58;;;;;;;5.07;2.58;;;;;;;;;;4898069;29;20040;-62
2023/08/21 06:55:24;;;;;;;7.00;2.55;;;;;;;;;;4897649;29;20081;-65
2023/08/21 06:57:49;;;;;;;6.85;2.60;;;;;;;;;;4898883;29;20481;-65
2023/08/21 07:00:15;;;;;;;9.35;2.80;;;;;;;;;;4897647;29;20140;-66
2023/08/21 07:02:40;;;;;;;5.60;2.40;;;;;;;;;;4897848;29;20486;-65
2023/08/21 07:05:06;;;;;;;5.80;2.30;;;;;;;;;;4880601;29;20044;-65
2023/08/21 07:07:31;;;;;;;8.68;2.40;;;;;;;;;;4892121;29;20258;-65
2023/08/21 07:09:56;;;;;;;5.85;2.30;;;;;;;;;;4897840;29;20109;-66
2023/08/21 07:12:22;;;;;;;6.32;2.38;;;;;;;;;;4881034;29;20028;-73
2023/08/21 07:14:48;;;;;;;8.88;2.60;;;;;;;;;;4897654;29;20529;-70
2023/08/21 07:17:14;;;;;;;4.43;2.30;;;;;;;;;;4897891;29;20037;-72
2023/08/21 07:19:39;;;;;;;5.78;2.38;;;;;;;;;;4898352;29;20088;-70
2023/08/21 07:22:04;;;;;;;7.13;2.30;;;;;;;;;;4897470;29;20381;-70
2023/08/21 07:24:30;;;;;;;7.22;2.60;;;;;;;;;;4890784;29;20040;-70
2023/08/21 07:26:55;;;;;;;4.63;2.38;;;;;;;;;;4894867;29;20032;-72
2023/08/21 07:29:20;;;;;;;6.35;2.20;;;;;;;;;;4894926;29;20037;-73
2023/08/21 07:31:46;;;;;;;5.75;2.30;;;;;;;;;;4874540;29;20040;-69
2023/08/21 07:34:11;;;;;;;9.73;2.58;;;;;;;;;;4889278;29;20032;-70
2023/08/21 07:36:36;;;;;;;7.68;2.65;;;;;;;;;;4897217;29;20595;-68
2023/08/21 07:39:02;;;;;;;7.57;2.53;;;;;;;;;;4897748;29;20029;-70
2023/08/21 07:41:27;;;;;;;8.73;2.53;;;;;;;;;;4907564;29;20088;-70
2023/08/21 07:43:53;;;;;;;10.65;2.60;;;;;;;;;;4916876;29;20043;-71
2023/08/21 07:46:18;;;;;;;6.72;2.40;;;;;;;;;;4910244;29;20075;-70
2023/08/21 07:48:45;;;;;;;6.20;2.28;;;;;;;;;;4896554;29;20040;-71
2023/08/21 07:51:10;;;;;;;9.65;2.65;;;;;;;;;;4898758;29;20514;-71
2023/08/21 07:53:36;;;;;;;7.78;2.20;;;;;;;;;;4916192;29;20114;-70
2023/08/21 07:56:06;;;;;;;6.75;2.28;;;;;;;;;;4916158;29;20048;-70
2023/08/21 07:58:32;;;;;;;6.65;2.00;;;;;;;;;;4897088;29;20091;-71
2023/08/21 08:00:57;;;;;;;7.32;2.10;;;;;;;;;;4916962;29;20103;-70
2023/08/21 08:03:23;;;;;;;9.50;2.58;;;;;;;;;;4902887;29;20048;-70
2023/08/21 08:05:48;;;;;;;7.75;2.22;;;;;;;;;;4896548;29;20052;-72
2023/08/21 08:08:17;;;;;;;6.63;2.10;;;;;;;;;;4896564;29;20040;-72
2023/08/21 08:10:42;;;;;;;51.58;5.13;;;;;;;;;;4896708;29;20429;-73
2023/08/21 08:13:08;;;;;;;18.38;2.55;;;;;;;;;;4896753;29;20040;-75
2023/08/21 08:15:34;;;;;;;37.80;2.92;;;;;;;;;;4894332;29;20069;-70
2023/08/21 08:18:03;;;;;;;55.65;4.72;;;;;;;;;;4894444;29;20037;-69
2023/08/21 08:20:29;;;;;;;7.30;2.47;;;;;;;;;;4893502;29;20050;-66
2023/08/21 08:22:55;;;;;;;12.75;2.40;;;;;;;;;;4896582;29;20131;-63
2023/08/21 08:25:20;;;;;;;4.90;2.30;;;;;;;;;;4893800;29;20120;-65
2023/08/21 08:27:46;;;;;;;4.53;2.00;;;;;;;;;;4897237;29;20040;-64
2023/08/21 08:30:11;;;;;;;4.68;2.00;;;;;;;;;;4897063;29;20036;-64
2023/08/21 08:32:37;;;;;;;13.45;2.60;;;;;;;;;;4895106;29;20032;-64
2023/08/21 08:35:02;;;;;;;6.28;2.20;;;;;;;;;;4895957;29;20029;-64
2023/08/21 08:37:28;;;;;;;6.60;2.00;;;;;;;;;;4895542;29;20063;-64
2023/08/21 08:39:53;;;;;;;4.38;1.92;;;;;;;;;;4895875;29;20100;-64
2023/08/21 08:42:19;;;;;;;6.13;2.10;;;;;;;;;;4895086;29;20102;-64
2023/08/21 08:44:44;;;;;;;4.68;1.98;;;;;;;;;;4897113;29;20037;-65
2023/08/21 08:47:11;;;;;;;3.50;1.65;;;;;;;;;;4897183;29;20064;-65
2023/08/21 08:49:40;;;;;;;8.77;2.20;;;;;;;;;;4894778;29;20032;-66
2023/08/21 08:52:05;;;;;;;6.13;2.20;;;;;;;;;;4895415;29;20064;-76
2023/08/21 08:54:31;;;;;;;5.50;1.98;;;;;;;;;;4895853;29;20079;-78
2023/08/21 08:56:58;;;;;;;5.90;1.70;;;;;;;;;;4897107;29;20045;-77
2023/08/21 08:59:23;;;;;;;29.83;2.72;;;;;;;;;;4891480;29;20044;-74
2023/08/21 09:01:49;;;;;;;24.55;2.35;;;;;;;;;;4879306;29;20397;-73
2023/08/21 09:04:15;;;;;;;28.52;2.30;;;;;;;;;;4896934;29;20485;-73
2023/08/21 09:06:40;;;;;;;16.20;1.80;;;;;;;;;;4902090;29;20032;-72
2023/08/21 09:09:07;;;;;;;32.05;2.90;;;;;;;;;;4906477;29;20036;-73
2023/08/21 09:11:33;;;;;;;40.50;3.05;;;;;;;;;;4907134;29;20418;-74
2023/08/21 09:13:59;;;;;;;5.10;1.42;;;;;;;;;;4896617;29;20039;-74
2023/08/21 09:16:25;;;;;;;8.60;1.80;;;;;;;;;;4895012;29;20110;-74
2023/08/21 09:18:58;;;;;;;7.72;1.83;;;;;;;;;;4896802;29;20040;-75
2023/08/21 09:21:25;;;;;;;8.65;1.85;;;;;;;;;;4893901;29;20055;-72
2023/08/21 09:24:00;;;;;;;43.35;2.42;;;;;;;;;;4896547;29;20033;-74
2023/08/21 09:26:25;;;;;;;7.97;1.88;;;;;;;;;;4895747;29;20024;-74
2023/08/21 09:28:52;;;;;;;35.85;2.65;;;;;;;;;;4896347;29;20032;-75
2023/08/21 09:31:23;;;;;;;18.48;2.15;;;;;;;;;;4895981;29;20040;-71
2023/08/21 09:34:04;;;;;;;38.25;2.67;;;;;;;;;;4895684;29;20075;-73
2023/08/21 09:36:30;;;;;;;142.40;5.60;;;;;;;;;;4895712;29;20037;-73
2023/08/21 09:38:56;;;;;;;16.08;2.17;;;;;;;;;;4879850;29;20055;-72
2023/08/21 09:41:22;;;;;;;30.10;2.83;;;;;;;;;;4895627;29;20449;-72
2023/08/21 09:43:48;;;;;;;37.65;2.72;;;;;;;;;;4896999;29;20092;-73
2023/08/21 09:46:18;;;;;;;23.10;2.63;;;;;;;;;;4899019;29;20040;-73
2023/08/21 09:48:47;;;;;;;274.90;11.25;;;;;;;;;;4917767;29;20393;-74
2023/08/21 09:51:13;;;;;;;30.65;2.88;;;;;;;;;;4918734;29;20489;-73
2023/08/21 09:56:46;;;;;;;173.82;7.85;;;;;;;;;;4823140;29;20461;-72
2023/08/21 09:59:11;;;;;;;16.95;2.08;;;;;;;;;;4832768;29;20054;-72
2023/08/21 10:05:04;;;;;;;10.05;2.40;;;;;;;;;;4840955;29;20069;-74
2023/08/21 10:07:30;;;;;;;26.67;2.50;;;;;;;;;;4840108;29;20143;-73
2023/08/21 10:13:38;;;;;;;15.65;2.03;;;;;;;;;;4822608;29;20042;-74
2023/08/21 10:16:05;;;;;;;151.32;8.65;;;;;;;;;;4825524;29;20114;-74
2023/08/21 10:18:35;;;;;;;17.85;2.35;;;;;;;;;;4831084;29;20065;-73
2023/08/21 10:21:34;;;;;;;111.82;6.38;;;;;;;;;;4823664;29;20046;-73
2023/08/21 10:24:00;;;;;;;53.35;3.60;;;;;;;;;;4819559;29;20530;-72
2023/08/21 10:26:26;;;;;;;8.13;1.50;;;;;;;;;;4839430;29;20071;-73
2023/08/21 10:28:54;;;;;;;12.20;1.73;;;;;;;;;;4885450;29;20080;-73
2023/08/21 10:31:34;;;;;;;39.85;4.05;;;;;;;;;;4904475;29;20036;-70
2023/08/21 10:34:03;;;;;;;8.20;1.75;;;;;;;;;;4898448;29;20499;-71
2023/08/21 10:36:43;;;;;;;9.52;2.08;;;;;;;;;;4897075;29;20044;-72
2023/08/21 10:39:18;;;;;;;;;;;;;;;;;;4908499;29;20092;-72
2023/08/21 10:42:06;;;;;;;13.88;2.80;;;;;;;;;;4917472;29;20065;-73
2023/08/21 10:45:00;;;;;;;8.68;2.63;;;;;;;;;;4914327;29;20064;-66
2023/08/21 10:47:28;;;;;;;4.32;1.48;;;;;;;;;;4895899;29;20048;-65
2023/08/21 10:50:00;;;;;;;4.93;1.83;;;;;;;;;;4898485;29;20069;-64
2023/08/21 10:52:36;;;;;;;7.03;1.80;;;;;;;;;;4898353;29;20043;-65
2023/08/21 10:55:05;;;;;;;3.70;1.50;;;;;;;;;;4899065;29;20048;-64
2023/08/21 10:57:32;;;;;;;5.75;1.90;;;;;;;;;;4896188;29;20074;-65
2023/08/21 10:59:59;;;;;;;3.03;1.50;;;;;;;;;;4897963;29;20059;-64
2023/08/21 11:02:29;;;;;;;4.47;1.40;;;;;;;;;;4896850;29;20044;-68
2023/08/21 11:04:55;;;;;;;4.03;1.38;;;;;;;;;;4898343;29;20068;-64
2023/08/21 11:07:21;;;;;;;5.88;1.48;;;;;;;;;;4898355;29;20070;-67
2023/08/21 11:09:48;;;;;;;4.88;1.70;;;;;;;;;;4898594;29;20036;-65
2023/08/21 11:12:17;;;;;;;5.55;1.70;;;;;;;;;;4901059;29;20036;-65
2023/08/21 11:14:43;;;;;;;5.77;1.50;;;;;;;;;;4900890;29;20047;-64
2023/08/21 11:17:09;;;;;;;4.80;1.70;;;;;;;;;;4897588;29;20032;-64
2023/08/21 11:19:36;;;;;;;3.80;1.83;;;;;;;;;;4897971;29;20028;-64
2023/08/21 11:22:08;;;;;;;5.75;1.77;;;;;;;;;;4881623;29;20037;-65
2023/08/21 11:24:36;;;;;;;4.30;1.70;;;;;;;;;;4897675;29;20061;-67
2023/08/21 11:27:04;;;;;;;3.55;1.55;;;;;;;;;;4898309;29;20131;-66
2023/08/21 11:29:32;;;;;;;5.30;1.40;;;;;;;;;;4894354;29;20036;-66
2023/08/21 11:31:58;;;;;;;3.20;1.50;;;;;;;;;;4896729;29;20041;-74
2023/08/21 11:34:23;;;;;;;8.05;1.60;;;;;;;;;;4891013;29;20101;-73
2023/08/21 11:36:49;;;;;;;7.07;1.70;;;;;;;;;;4883380;29;20461;-75
2023/08/21 11:39:14;;;;;;;5.70;1.70;;;;;;;;;;4900667;29;20037;-74
2023/08/21 11:41:58;;;;;;;4.03;1.35;;;;;;;;;;4914217;29;20397;-77
2023/08/21 11:44:24;;;;;;;4.15;1.60;;;;;;;;;;4900534;29;20068;-74
2023/08/21 11:46:55;;;;;;;3.75;1.50;;;;;;;;;;4898772;29;20068;-77
2023/08/21 11:49:22;;;;;;;2.92;1.40;;;;;;;;;;4897826;29;20139;-74
2023/08/21 11:51:48;;;;;;;4.63;1.50;;;;;;;;;;4895696;29;20579;-75
2023/08/21 11:54:13;;;;;;;5.32;1.70;;;;;;;;;;4880360;29;20037;-74
2023/08/21 11:56:41;;;;;;;7.90;1.70;;;;;;;;;;4897013;29;20104;-76
2023/08/21 11:59:06;;;;;;;5.57;1.63;;;;;;;;;;4900088;29;20422;-75
2023/08/21 12:01:35;;;;;;;3.78;1.40;;;;;;;;;;4904522;29;20067;-78
2023/08/21 12:04:00;;;;;;;7.45;1.60;;;;;;;;;;4881370;29;20028;-75
2023/08/21 12:06:27;;;;;;;4.18;1.60;;;;;;;;;;4896129;29;20100;-71
2023/08/21 12:08:52;;;;;;;5.60;1.60;;;;;;;;;;4896163;29;20067;-65
2023/08/21 12:11:18;;;;;;;3.85;1.50;;;;;;;;;;4896498;29;20083;-65
2023/08/21 12:13:43;;;;;;;8.88;1.60;;;;;;;;;;4895848;29;20111;-66
2023/08/21 12:16:08;;;;;;;4.00;1.55;;;;;;;;;;4895875;29;20045;-66
2023/08/21 12:18:34;;;;;;;5.20;1.70;;;;;;;;;;4879720;29;20462;-67
2023/08/21 12:20:59;;;;;;;7.15;1.60;;;;;;;;;;4897997;29;20053;-66
2023/08/21 12:23:24;;;;;;;4.35;1.60;;;;;;;;;;4881057;29;20060;-65
2023/08/21 12:25:50;;;;;;;5.55;1.60;;;;;;;;;;4897191;29;20088;-66
2023/08/21 12:28:15;;;;;;;5.18;1.70;;;;;;;;;;4897962;29;20036;-66
2023/08/21 12:30:41;;;;;;;4.72;1.92;;;;;;;;;;4894854;29;20116;-66
2023/08/21 12:33:12;;;;;;;3.95;1.60;;;;;;;;;;5069161;28;20376;-66
2023/08/21 12:35:38;;;;;;;5.35;1.90;;;;;;;;;;5048982;28;20041;-65
2023/08/21 12:38:12;;;;;;;4.68;1.67;;;;;;;;;;5048844;28;20029;-66
2023/08/21 12:40:37;;;;;;;4.72;1.70;;;;;;;;;;5048007;28;20029;-66
2023/08/21 12:43:03;;;;;;;4.72;1.80;;;;;;;;;;5048898;28;20033;-66
2023/08/21 12:45:28;;;;;;;3.80;1.70;;;;;;;;;;5058165;28;20036;-67
2023/08/21 12:47:54;;;;;;;4.78;1.80;;;;;;;;;;5068163;28;20043;-64
2023/08/21 12:50:19;;;;;;;3.40;1.70;;;;;;;;;;5068917;28;20029;-65
2023/08/21 12:52:44;;;;;;;4.85;1.83;;;;;;;;;;5067634;28;20457;-66
2023/08/21 12:55:10;;;;;;;3.78;1.65;;;;;;;;;;5068630;28;20075;-65
2023/08/21 12:57:35;;;;;;;4.82;1.67;;;;;;;;;;5067462;28;20032;-66
2023/08/21 13:00:01;;;;;;;4.25;1.73;;;;;;;;;;5067829;28;20030;-65
2023/08/21 13:02:27;;;;;;;7.22;2.08;;;;;;;;;;5067250;28;20037;-66
2023/08/21 13:04:53;;;;;;;6.15;1.80;;;;;;;;;;5067406;28;20510;-65
2023/08/21 13:07:18;;;;;;;5.45;1.90;;;;;;;;;;5067949;28;20105;-66
2023/08/21 13:09:43;;;;;;;4.57;1.63;;;;;;;;;;5065742;28;20029;-65
2023/08/21 13:12:09;;;;;;;4.75;1.80;;;;;;;;;;5063258;28;20059;-65
2023/08/21 13:14:34;;;;;;;5.22;2.33;;;;;;;;;;5052341;28;20028;-66
2023/08/21 13:17:00;;;;;;;5.53;1.92;;;;;;;;;;5066180;28;20477;-66
2023/08/21 13:19:25;;;;;;;4.25;1.77;;;;;;;;;;5067555;28;20068;-66
2023/08/21 13:21:51;;;;;;;5.18;1.80;;;;;;;;;;5066688;28;20154;-67
2023/08/21 13:24:16;;;;;;;5.60;1.90;;;;;;;;;;5067912;28;20450;-67
2023/08/21 13:26:42;;;;;;;8.43;2.13;;;;;;;;;;5063819;28;20108;-67
2023/08/21 13:29:07;;;;;;;2.95;1.75;;;;;;;;;;5054469;28;20412;-67
2023/08/21 13:31:33;;;;;;;3.17;1.70;;;;;;;;;;5068821;28;20460;-67
2023/08/21 13:33:58;;;;;;;8.05;2.60;;;;;;;;;;5067495;28;20025;-71
2023/08/21 13:36:23;;;;;;;7.72;1.88;;;;;;;;;;5066063;28;20033;-70
2023/08/21 13:38:49;;;;;;;6.88;2.10;;;;;;;;;;5066341;28;20032;-69
2023/08/21 13:41:14;;;;;;;4.47;1.70;;;;;;;;;;5055196;28;20140;-71
2023/08/21 13:43:40;;;;;;;4.18;1.88;;;;;;;;;;5038567;28;20029;-70
2023/08/21 13:46:05;;;;;;;5.43;2.10;;;;;;;;;;5051859;28;20033;-70
2023/08/21 13:48:31;;;;;;;4.88;2.97;;;;;;;;;;5053789;28;20738;-71
2023/08/21 13:50:57;;;;;;;5.25;1.90;;;;;;;;;;5052234;28;20036;-73
2023/08/21 13:53:22;;;;;;;5.75;1.90;;;;;;;;;;5054276;28;20037;-71
2023/08/21 13:55:49;;;;;;;4.65;1.95;;;;;;;;;;5051217;28;20037;-71
2023/08/21 13:58:14;;;;;;;4.85;2.10;;;;;;;;;;5043194;28;20029;-71
2023/08/21 14:00:40;;;;;;;4.68;1.90;;;;;;;;;;5051987;28;20047;-71
2023/08/21 14:03:05;;;;;;;4.35;1.85;;;;;;;;;;5053597;28;20120;-70
2023/08/21 14:05:31;;;;;;;5.72;2.20;;;;;;;;;;5033856;28;20037;-70
2023/08/21 14:07:57;;;;;;;4.70;2.08;;;;;;;;;;5032807;28;20030;-70
2023/08/21 14:10:23;;;;;;;4.43;2.25;;;;;;;;;;5033795;28;20060;-70
2023/08/21 14:12:48;;;;;;;9.32;2.13;;;;;;;;;;5032762;28;20068;-69
2023/08/21 14:15:14;;;;;;;9.38;2.20;;;;;;;;;;5043874;28;20033;-70
2023/08/21 14:17:39;;;;;;;5.70;2.30;;;;;;;;;;5048038;28;20029;-68
2023/08/21 14:20:07;;;;;;;4.15;1.98;;;;;;;;;;5052289;28;20040;-67
2023/08/21 14:22:32;;;;;;;4.95;1.90;;;;;;;;;;5053561;28;20033;-68
2023/08/21 14:24:58;;;;;;;7.28;2.53;;;;;;;;;;5051623;28;20033;-67
2023/08/21 14:27:23;;;;;;;7.63;2.20;;;;;;;;;;5044903;28;20025;-67
2023/08/21 14:29:49;;;;;;;4.82;2.00;;;;;;;;;;5044726;28;20120;-67
2023/08/21 14:32:14;;;;;;;6.47;2.08;;;;;;;;;;5044575;28;20049;-68
2023/08/21 14:34:40;;;;;;;5.60;2.20;;;;;;;;;;5046817;28;20037;-68
2023/08/21 14:37:06;;;;;;;6.32;2.22;;;;;;;;;;5051219;28;20037;-68
2023/08/21 14:39:31;;;;;;;6.30;2.10;;;;;;;;;;5047994;28;20036;-68
2023/08/21 14:41:58;;;;;;;3.10;1.70;;;;;;;;;;5049042;28;20852;-68
2023/08/21 14:44:24;;;;;;;4.78;1.80;;;;;;;;;;5053100;28;20072;-67
2023/08/21 14:46:50;;;;;;;4.97;2.00;;;;;;;;;;5052197;28;20041;-68